sensor_id;sensor_type;location;lat;lon;timestamp;temperature;humidity
7204;DHT22;3643;52.460;13.322;2023-06-22T00:00:36;21.20;99.90
7204;DHT22;3643;52.460;13.322;2023-06-22T00:03:06;21.20;99.90
7204;DHT22;3643;52.460;13.322;2023-06-22T00:05:35;21.20;99.90
7204;DHT22;3643;52.460;13.322;2023-06-22T00:08:04;21.10;99.90
7204;DHT22;3643;52.460;13.322;2023-06-22T00:10:33;21.10;99.90
7204;DHT22;3643;52.460;13.322;2023-06-22T00:13:02;21.10;99.90
7204;DHT22;3643;52.460;13.322;2023-06-22T00:15:30;21.10;99.90
7204;DHT22;3643;52.460;13.322;2023-06-22T00:17:59;21.00;99.90
7204;DHT22;3643;52.460;13.322;2023-06-22T00:20:27;21.00;99.90
7204;DHT22;3643;52.460;13.322;2023-06-22T00:22:59;21.00;99.90
7204;DHT22;3643;52.460;13.322;2023-06-22T00:25:28;21.00;99.90
7204;DHT22;3643;52.460;13.322;2023-06-22T00:27:56;21.00;99.90
7204;DHT22;3643;52.460;13.322;2023-06-22T00:30:24;21.00;99.90
7204;DHT22;3643;52.460;13.322;2023-06-22T00:32:53;21.00;99.90
7204;DHT22;3643;52.460;13.322;2023-06-22T00:35:22;20.90;99.90
7204;DHT22;3643;52.460;13.322;2023-06-22T00:37:56;20.90;99.90
7204;DHT22;3643;52.460;13.322;2023-06-22T00:40:31;20.90;99.90
7204;DHT22;3643;52.460;13.322;2023-06-22T00:43:01;20.80;99.90
7204;DHT22;3643;52.460;13.322;2023-06-22T00:45:29;20.80;99.90
7204;DHT22;3643;52.460;13.322;2023-06-22T00:47:58;20.80;99.90
7204;DHT22;3643;52.460;13.322;2023-06-22T00:50:29;20.80;99.90
7204;DHT22;3643;52.460;13.322;2023-06-22T00:53:03;20.70;99.90
7204;DHT22;3643;52.460;13.322;2023-06-22T00:55:39;20.70;99.90
7204;DHT22;3643;52.460;13.322;2023-06-22T00:58:11;20.70;99.90
7204;DHT22;3643;52.460;13.322;2023-06-22T01:00:40;20.70;99.90
7204;DHT22;3643;52.460;13.322;2023-06-22T01:03:09;20.60;99.90
7204;DHT22;3643;52.460;13.322;2023-06-22T01:05:38;20.60;99.90
7204;DHT22;3643;52.460;13.322;2023-06-22T01:08:18;20.50;99.90
7204;DHT22;3643;52.460;13.322;2023-06-22T01:10:52;20.50;99.90
7204;DHT22;3643;52.460;13.322;2023-06-22T01:13:28;20.50;99.90
7204;DHT22;3643;52.460;13.322;2023-06-22T01:16:01;20.50;99.90
7204;DHT22;3643;52.460;13.322;2023-06-22T01:18:31;20.40;99.90
7204;DHT22;3643;52.460;13.322;2023-06-22T01:21:04;20.40;99.90
7204;DHT22;3643;52.460;13.322;2023-06-22T01:23:48;20.40;99.90
7204;DHT22;3643;52.460;13.322;2023-06-22T01:26:25;20.30;99.90
7204;DHT22;3643;52.460;13.322;2023-06-22T01:28:59;20.30;99.90
7204;DHT22;3643;52.460;13.322;2023-06-22T01:31:29;20.30;99.90
7204;DHT22;3643;52.460;13.322;2023-06-22T01:34:00;20.20;99.90
7204;DHT22;3643;52.460;13.322;2023-06-22T01:36:30;20.20;99.90
7204;DHT22;3643;52.460;13.322;2023-06-22T01:38:59;20.20;99.90
7204;DHT22;3643;52.460;13.322;2023-06-22T01:41:29;20.30;99.90
7204;DHT22;3643;52.460;13.322;2023-06-22T01:44:00;20.30;99.90
7204;DHT22;3643;52.460;13.322;2023-06-22T01:46:29;20.30;99.90
7204;DHT22;3643;52.460;13.322;2023-06-22T01:48:58;20.40;99.90
7204;DHT22;3643;52.460;13.322;2023-06-22T01:51:26;20.40;99.90
7204;DHT22;3643;52.460;13.322;2023-06-22T01:53:54;20.40;99.90
7204;DHT22;3643;52.460;13.322;2023-06-22T01:56:22;20.40;99.90
7204;DHT22;3643;52.460;13.322;2023-06-22T01:58:55;20.40;99.90
7204;DHT22;3643;52.460;13.322;2023-06-22T02:01:33;20.40;99.90
7204;DHT22;3643;52.460;13.322;2023-06-22T02:04:07;20.40;99.90
7204;DHT22;3643;52.460;13.322;2023-06-22T02:06:39;20.40;99.90
7204;DHT22;3643;52.460;13.322;2023-06-22T02:09:12;20.40;99.90
7204;DHT22;3643;52.460;13.322;2023-06-22T02:11:43;20.40;99.90
7204;DHT22;3643;52.460;13.322;2023-06-22T02:14:14;20.30;99.90
7204;DHT22;3643;52.460;13.322;2023-06-22T02:16:47;20.30;99.90
7204;DHT22;3643;52.460;13.322;2023-06-22T02:19:15;20.30;99.90
7204;DHT22;3643;52.460;13.322;2023-06-22T02:21:45;20.20;99.90
7204;DHT22;3643;52.460;13.322;2023-06-22T02:24:13;20.20;99.90
7204;DHT22;3643;52.460;13.322;2023-06-22T02:26:42;20.20;99.90
7204;DHT22;3643;52.460;13.322;2023-06-22T02:29:12;20.10;99.90
7204;DHT22;3643;52.460;13.322;2023-06-22T02:31:40;20.00;99.90
7204;DHT22;3643;52.460;13.322;2023-06-22T02:34:10;20.10;99.90
7204;DHT22;3643;52.460;13.322;2023-06-22T02:36:45;20.00;99.90
7204;DHT22;3643;52.460;13.322;2023-06-22T02:39:19;20.10;99.90
7204;DHT22;3643;52.460;13.322;2023-06-22T02:41:49;20.10;99.90
7204;DHT22;3643;52.460;13.322;2023-06-22T02:44:18;20.10;99.90
7204;DHT22;3643;52.460;13.322;2023-06-22T02:46:47;20.10;99.90
7204;DHT22;3643;52.460;13.322;2023-06-22T02:49:16;20.10;99.90
7204;DHT22;3643;52.460;13.322;2023-06-22T02:51:46;20.20;99.90
7204;DHT22;3643;52.460;13.322;2023-06-22T02:54:15;20.20;99.90
7204;DHT22;3643;52.460;13.322;2023-06-22T02:56:44;20.20;99.90
7204;DHT22;3643;52.460;13.322;2023-06-22T02:59:13;19.00;99.90
7204;DHT22;3643;52.460;13.322;2023-06-22T03:01:41;20.30;99.90
7204;DHT22;3643;52.460;13.322;2023-06-22T03:04:09;20.30;99.90
7204;DHT22;3643;52.460;13.322;2023-06-22T03:06:39;20.30;99.90
7204;DHT22;3643;52.460;13.322;2023-06-22T03:09:08;20.30;99.90
7204;DHT22;3643;52.460;13.322;2023-06-22T03:11:36;20.40;99.90
7204;DHT22;3643;52.460;13.322;2023-06-22T03:14:04;20.40;99.90
7204;DHT22;3643;52.460;13.322;2023-06-22T03:16:32;20.40;99.90
7204;DHT22;3643;52.460;13.322;2023-06-22T03:19:01;20.40;99.90
7204;DHT22;3643;52.460;13.322;2023-06-22T03:21:29;20.40;99.90
7204;DHT22;3643;52.460;13.322;2023-06-22T03:24:00;19.50;99.90
7204;DHT22;3643;52.460;13.322;2023-06-22T03:26:28;20.40;99.90
7204;DHT22;3643;52.460;13.322;2023-06-22T03:28:57;20.40;99.90
7204;DHT22;3643;52.460;13.322;2023-06-22T03:31:25;20.40;99.90
7204;DHT22;3643;52.460;13.322;2023-06-22T03:33:53;20.50;99.90
7204;DHT22;3643;52.460;13.322;2023-06-22T03:36:22;20.50;99.90
7204;DHT22;3643;52.460;13.322;2023-06-22T03:38:51;20.60;99.90
7204;DHT22;3643;52.460;13.322;2023-06-22T03:41:21;20.60;99.90
7204;DHT22;3643;52.460;13.322;2023-06-22T03:43:49;20.70;99.90
7204;DHT22;3643;52.460;13.322;2023-06-22T03:46:18;20.70;99.90
7204;DHT22;3643;52.460;13.322;2023-06-22T03:48:47;20.70;99.90
7204;DHT22;3643;52.460;13.322;2023-06-22T03:51:15;20.80;99.90
7204;DHT22;3643;52.460;13.322;2023-06-22T03:53:44;20.80;99.90
7204;DHT22;3643;52.460;13.322;2023-06-22T03:56:12;20.90;99.90
7204;DHT22;3643;52.460;13.322;2023-06-22T03:58:48;20.90;99.90
7204;DHT22;3643;52.460;13.322;2023-06-22T04:01:17;21.00;99.90
7204;DHT22;3643;52.460;13.322;2023-06-22T04:03:45;21.20;99.90
7204;DHT22;3643;52.460;13.322;2023-06-22T04:06:16;21.20;99.90
7204;DHT22;3643;52.460;13.322;2023-06-22T04:08:45;21.20;99.90
7204;DHT22;3643;52.460;13.322;2023-06-22T04:11:15;21.20;99.90
7204;DHT22;3643;52.460;13.322;2023-06-22T04:13:43;21.20;99.90
7204;DHT22;3643;52.460;13.322;2023-06-22T04:16:13;21.20;99.90
7204;DHT22;3643;52.460;13.322;2023-06-22T04:18:41;21.30;99.90
7204;DHT22;3643;52.460;13.322;2023-06-22T04:21:10;21.30;99.90
7204;DHT22;3643;52.460;13.322;2023-06-22T04:23:38;21.30;99.90
7204;DHT22;3643;52.460;13.322;2023-06-22T04:26:06;21.30;99.90
7204;DHT22;3643;52.460;13.322;2023-06-22T04:28:35;21.40;99.90
7204;DHT22;3643;52.460;13.322;2023-06-22T04:31:03;21.40;99.90
7204;DHT22;3643;52.460;13.322;2023-06-22T04:33:33;21.50;99.90
7204;DHT22;3643;52.460;13.322;2023-06-22T04:36:01;21.60;99.90
7204;DHT22;3643;52.460;13.322;2023-06-22T04:38:30;21.70;99.90
7204;DHT22;3643;52.460;13.322;2023-06-22T04:41:00;21.80;99.90
7204;DHT22;3643;52.460;13.322;2023-06-22T04:43:30;21.90;99.90
7204;DHT22;3643;52.460;13.322;2023-06-22T04:45:58;21.90;99.90
7204;DHT22;3643;52.460;13.322;2023-06-22T04:48:30;22.00;99.90
7204;DHT22;3643;52.460;13.322;2023-06-22T04:51:01;22.40;99.90
7204;DHT22;3643;52.460;13.322;2023-06-22T04:53:31;22.60;99.90
7204;DHT22;3643;52.460;13.322;2023-06-22T04:56:00;22.80;99.90
7204;DHT22;3643;52.460;13.322;2023-06-22T04:58:31;23.00;99.90
7204;DHT22;3643;52.460;13.322;2023-06-22T05:00:59;23.10;99.90
7204;DHT22;3643;52.460;13.322;2023-06-22T05:03:27;23.30;99.90
7204;DHT22;3643;52.460;13.322;2023-06-22T05:05:56;23.30;99.90
7204;DHT22;3643;52.460;13.322;2023-06-22T05:08:25;23.50;99.90
7204;DHT22;3643;52.460;13.322;2023-06-22T05:10:55;23.70;99.90
7204;DHT22;3643;52.460;13.322;2023-06-22T05:13:32;23.90;99.90
7204;DHT22;3643;52.460;13.322;2023-06-22T05:16:00;23.90;99.90
7204;DHT22;3643;52.460;13.322;2023-06-22T05:18:30;24.10;99.90
7204;DHT22;3643;52.460;13.322;2023-06-22T05:20:59;24.50;99.90
7204;DHT22;3643;52.460;13.322;2023-06-22T05:23:29;25.10;99.90
7204;DHT22;3643;52.460;13.322;2023-06-22T05:25:57;26.00;99.90
7204;DHT22;3643;52.460;13.322;2023-06-22T05:28:26;26.90;99.90
7204;DHT22;3643;52.460;13.322;2023-06-22T05:30:54;27.40;99.90
7204;DHT22;3643;52.460;13.322;2023-06-22T05:33:22;28.40;99.90
7204;DHT22;3643;52.460;13.322;2023-06-22T05:35:51;28.90;99.90
7204;DHT22;3643;52.460;13.322;2023-06-22T05:38:19;28.60;99.90
7204;DHT22;3643;52.460;13.322;2023-06-22T05:40:49;28.10;99.90
7204;DHT22;3643;52.460;13.322;2023-06-22T05:43:17;27.00;99.90
7204;DHT22;3643;52.460;13.322;2023-06-22T05:45:46;26.10;99.90
7204;DHT22;3643;52.460;13.322;2023-06-22T05:48:14;25.50;99.90
7204;DHT22;3643;52.460;13.322;2023-06-22T05:50:42;24.90;99.90
7204;DHT22;3643;52.460;13.322;2023-06-22T05:53:11;24.70;99.90
7204;DHT22;3643;52.460;13.322;2023-06-22T05:55:39;24.60;99.90
7204;DHT22;3643;52.460;13.322;2023-06-22T05:58:09;24.30;99.90
7204;DHT22;3643;52.460;13.322;2023-06-22T06:00:37;24.20;99.90
7204;DHT22;3643;52.460;13.322;2023-06-22T06:03:06;24.30;99.90
7204;DHT22;3643;52.460;13.322;2023-06-22T06:05:36;24.50;99.90
7204;DHT22;3643;52.460;13.322;2023-06-22T06:08:06;24.50;99.90
7204;DHT22;3643;52.460;13.322;2023-06-22T06:10:35;24.50;99.90
7204;DHT22;3643;52.460;13.322;2023-06-22T06:13:04;24.50;99.90
7204;DHT22;3643;52.460;13.322;2023-06-22T06:15:34;24.40;99.90
7204;DHT22;3643;52.460;13.322;2023-06-22T06:18:03;24.50;99.90
7204;DHT22;3643;52.460;13.322;2023-06-22T06:20:33;24.60;99.90
7204;DHT22;3643;52.460;13.322;2023-06-22T06:23:02;25.70;99.90
7204;DHT22;3643;52.460;13.322;2023-06-22T06:25:30;27.00;99.90
7204;DHT22;3643;52.460;13.322;2023-06-22T06:27:59;27.30;99.90
7204;DHT22;3643;52.460;13.322;2023-06-22T06:30:27;28.20;99.90
7204;DHT22;3643;52.460;13.322;2023-06-22T06:32:58;29.10;99.90
7204;DHT22;3643;52.460;13.322;2023-06-22T06:35:26;29.70;99.30
7204;DHT22;3643;52.460;13.322;2023-06-22T06:37:55;30.20;99.50
7204;DHT22;3643;52.460;13.322;2023-06-22T06:40:23;31.00;97.90
7204;DHT22;3643;52.460;13.322;2023-06-22T06:42:52;31.90;97.40
7204;DHT22;3643;52.460;13.322;2023-06-22T06:45:21;31.40;96.50
7204;DHT22;3643;52.460;13.322;2023-06-22T06:47:50;31.20;96.60
7204;DHT22;3643;52.460;13.322;2023-06-22T06:50:21;31.60;96.40
7204;DHT22;3643;52.460;13.322;2023-06-22T06:52:50;32.10;95.30
7204;DHT22;3643;52.460;13.322;2023-06-22T06:55:18;32.00;94.40
7204;DHT22;3643;52.460;13.322;2023-06-22T06:57:47;32.10;94.60
7204;DHT22;3643;52.460;13.322;2023-06-22T07:00:17;32.20;93.70
7204;DHT22;3643;52.460;13.322;2023-06-22T07:02:46;32.20;93.70
7204;DHT22;3643;52.460;13.322;2023-06-22T07:05:16;31.70;93.60
7204;DHT22;3643;52.460;13.322;2023-06-22T07:07:45;31.90;93.60
7204;DHT22;3643;52.460;13.322;2023-06-22T07:10:14;31.80;94.10
7204;DHT22;3643;52.460;13.322;2023-06-22T07:12:43;33.00;93.80
7204;DHT22;3643;52.460;13.322;2023-06-22T07:15:12;34.20;92.90
7204;DHT22;3643;52.460;13.322;2023-06-22T07:17:40;34.20;91.70
7204;DHT22;3643;52.460;13.322;2023-06-22T07:20:10;33.80;91.30
7204;DHT22;3643;52.460;13.322;2023-06-22T07:22:40;33.30;91.30
7204;DHT22;3643;52.460;13.322;2023-06-22T07:25:10;32.90;91.60
7204;DHT22;3643;52.460;13.322;2023-06-22T07:27:45;33.60;91.50
7204;DHT22;3643;52.460;13.322;2023-06-22T07:30:15;33.80;91.50
7204;DHT22;3643;52.460;13.322;2023-06-22T07:32:43;33.70;91.00
7204;DHT22;3643;52.460;13.322;2023-06-22T07:35:11;33.30;90.90
7204;DHT22;3643;52.460;13.322;2023-06-22T07:37:40;32.50;91.40
7204;DHT22;3643;52.460;13.322;2023-06-22T07:40:12;31.90;91.80
7204;DHT22;3643;52.460;13.322;2023-06-22T07:42:40;31.70;91.80
7204;DHT22;3643;52.460;13.322;2023-06-22T07:45:09;31.60;92.00
7204;DHT22;3643;52.460;13.322;2023-06-22T07:47:37;31.70;91.50
7204;DHT22;3643;52.460;13.322;2023-06-22T07:50:06;31.60;91.80
7204;DHT22;3643;52.460;13.322;2023-06-22T07:52:34;31.70;91.80
7204;DHT22;3643;52.460;13.322;2023-06-22T07:55:03;31.20;91.80
7204;DHT22;3643;52.460;13.322;2023-06-22T07:57:33;29.90;93.00
7204;DHT22;3643;52.460;13.322;2023-06-22T08:00:03;29.80;93.00
7204;DHT22;3643;52.460;13.322;2023-06-22T08:02:38;30.40;93.40
7204;DHT22;3643;52.460;13.322;2023-06-22T08:05:07;29.40;93.30
7204;DHT22;3643;52.460;13.322;2023-06-22T08:07:48;28.80;93.70
7204;DHT22;3643;52.460;13.322;2023-06-22T08:10:17;28.50;94.30
7204;DHT22;3643;52.460;13.322;2023-06-22T08:12:47;28.10;94.10
7204;DHT22;3643;52.460;13.322;2023-06-22T08:15:15;28.00;94.40
7204;DHT22;3643;52.460;13.322;2023-06-22T08:17:44;27.80;94.50
7204;DHT22;3643;52.460;13.322;2023-06-22T08:20:13;27.50;94.40
7204;DHT22;3643;52.460;13.322;2023-06-22T08:22:42;27.40;93.60
7204;DHT22;3643;52.460;13.322;2023-06-22T08:25:11;27.60;93.80
7204;DHT22;3643;52.460;13.322;2023-06-22T08:27:40;27.70;93.70
7204;DHT22;3643;52.460;13.322;2023-06-22T08:30:14;28.00;93.10
7204;DHT22;3643;52.460;13.322;2023-06-22T08:32:43;27.70;92.60
7204;DHT22;3643;52.460;13.322;2023-06-22T08:35:11;27.60;92.60
7204;DHT22;3643;52.460;13.322;2023-06-22T08:37:39;27.60;92.90
7204;DHT22;3643;52.460;13.322;2023-06-22T08:40:09;27.50;92.90
7204;DHT22;3643;52.460;13.322;2023-06-22T08:42:41;27.60;92.30
7204;DHT22;3643;52.460;13.322;2023-06-22T08:45:10;27.80;92.80
7204;DHT22;3643;52.460;13.322;2023-06-22T08:47:40;28.00;92.30
7204;DHT22;3643;52.460;13.322;2023-06-22T08:50:10;28.50;92.00
7204;DHT22;3643;52.460;13.322;2023-06-22T08:52:39;29.00;90.40
7204;DHT22;3643;52.460;13.322;2023-06-22T08:55:10;28.90;90.70
7204;DHT22;3643;52.460;13.322;2023-06-22T08:57:38;29.10;90.40
7204;DHT22;3643;52.460;13.322;2023-06-22T09:00:08;29.50;90.60
7204;DHT22;3643;52.460;13.322;2023-06-22T09:02:46;29.90;90.30
7204;DHT22;3643;52.460;13.322;2023-06-22T09:05:16;30.00;90.70
7204;DHT22;3643;52.460;13.322;2023-06-22T09:07:45;29.60;90.30
7204;DHT22;3643;52.460;13.322;2023-06-22T09:10:13;29.20;91.00
7204;DHT22;3643;52.460;13.322;2023-06-22T09:12:42;29.40;91.30
7204;DHT22;3643;52.460;13.322;2023-06-22T09:15:10;29.80;91.40
7204;DHT22;3643;52.460;13.322;2023-06-22T09:17:55;30.20;90.70
7204;DHT22;3643;52.460;13.322;2023-06-22T09:20:25;30.60;90.20
7204;DHT22;3643;52.460;13.322;2023-06-22T09:22:54;30.50;89.60
7204;DHT22;3643;52.460;13.322;2023-06-22T09:25:22;30.40;90.30
7204;DHT22;3643;52.460;13.322;2023-06-22T09:27:50;30.10;90.60
7204;DHT22;3643;52.460;13.322;2023-06-22T09:30:19;30.10;91.30
7204;DHT22;3643;52.460;13.322;2023-06-22T09:32:47;30.60;90.70
7204;DHT22;3643;52.460;13.322;2023-06-22T09:35:17;30.30;90.40
7204;DHT22;3643;52.460;13.322;2023-06-22T09:37:46;30.10;89.90
7204;DHT22;3643;52.460;13.322;2023-06-22T09:40:15;30.00;90.50
7204;DHT22;3643;52.460;13.322;2023-06-22T09:42:44;29.80;91.30
7204;DHT22;3643;52.460;13.322;2023-06-22T09:45:12;29.70;91.60
7204;DHT22;3643;52.460;13.322;2023-06-22T09:47:40;29.70;91.90
7204;DHT22;3643;52.460;13.322;2023-06-22T09:50:10;29.90;91.70
7204;DHT22;3643;52.460;13.322;2023-06-22T09:52:39;30.10;92.50
7204;DHT22;3643;52.460;13.322;2023-06-22T09:55:14;30.50;92.30
7204;DHT22;3643;52.460;13.322;2023-06-22T09:57:43;30.80;91.60
7204;DHT22;3643;52.460;13.322;2023-06-22T10:00:13;30.90;91.50
7204;DHT22;3643;52.460;13.322;2023-06-22T10:02:43;30.60;92.30
7204;DHT22;3643;52.460;13.322;2023-06-22T10:05:11;30.90;92.60
7204;DHT22;3643;52.460;13.322;2023-06-22T10:07:41;30.80;91.90
7204;DHT22;3643;52.460;13.322;2023-06-22T10:10:11;30.90;92.00
7204;DHT22;3643;52.460;13.322;2023-06-22T10:12:42;31.00;92.00
7204;DHT22;3643;52.460;13.322;2023-06-22T10:15:11;31.10;91.90
7204;DHT22;3643;52.460;13.322;2023-06-22T10:17:40;31.00;91.80
7204;DHT22;3643;52.460;13.322;2023-06-22T10:20:09;31.20;92.30
7204;DHT22;3643;52.460;13.322;2023-06-22T10:22:42;30.90;91.80
7204;DHT22;3643;52.460;13.322;2023-06-22T10:25:11;30.70;91.40
7204;DHT22;3643;52.460;13.322;2023-06-22T10:27:40;30.30;91.60
7204;DHT22;3643;52.460;13.322;2023-06-22T10:30:10;30.40;92.30
7204;DHT22;3643;52.460;13.322;2023-06-22T10:32:40;30.30;91.80
7204;DHT22;3643;52.460;13.322;2023-06-22T10:35:10;30.70;91.80
7204;DHT22;3643;52.460;13.322;2023-06-22T10:37:42;29.60;91.70
7204;DHT22;3643;52.460;13.322;2023-06-22T10:40:12;29.60;92.00
7204;DHT22;3643;52.460;13.322;2023-06-22T10:42:42;29.70;92.00
7204;DHT22;3643;52.460;13.322;2023-06-22T10:45:11;29.90;91.80
7204;DHT22;3643;52.460;13.322;2023-06-22T10:47:40;30.00;91.60
7204;DHT22;3643;52.460;13.322;2023-06-22T10:50:10;30.00;91.60
7204;DHT22;3643;52.460;13.322;2023-06-22T10:52:39;29.40;91.40
7204;DHT22;3643;52.460;13.322;2023-06-22T10:55:10;29.40;91.60
7204;DHT22;3643;52.460;13.322;2023-06-22T10:57:38;29.40;91.90
7204;DHT22;3643;52.460;13.322;2023-06-22T11:00:11;29.30;91.40
7204;DHT22;3643;52.460;13.322;2023-06-22T11:02:39;29.10;91.50
7204;DHT22;3643;52.460;13.322;2023-06-22T11:05:08;29.10;91.50
7204;DHT22;3643;52.460;13.322;2023-06-22T11:07:37;29.00;91.50
7204;DHT22;3643;52.460;13.322;2023-06-22T11:10:12;29.10;91.70
7204;DHT22;3643;52.460;13.322;2023-06-22T11:12:41;29.00;91.40
7204;DHT22;3643;52.460;13.322;2023-06-22T11:15:10;29.00;91.40
7204;DHT22;3643;52.460;13.322;2023-06-22T11:17:38;29.10;91.00
7204;DHT22;3643;52.460;13.322;2023-06-22T11:20:07;28.30;91.20
7204;DHT22;3643;52.460;13.322;2023-06-22T11:22:38;29.70;91.30
7204;DHT22;3643;52.460;13.322;2023-06-22T11:25:07;29.90;90.60
7204;DHT22;3643;52.460;13.322;2023-06-22T11:27:37;29.50;90.90
7204;DHT22;3643;52.460;13.322;2023-06-22T11:30:07;29.30;90.50
7204;DHT22;3643;52.460;13.322;2023-06-22T11:32:35;28.90;91.10
7204;DHT22;3643;52.460;13.322;2023-06-22T11:35:04;29.00;91.20
7204;DHT22;3643;52.460;13.322;2023-06-22T11:37:33;29.00;91.10
7204;DHT22;3643;52.460;13.322;2023-06-22T11:40:01;28.80;90.80
7204;DHT22;3643;52.460;13.322;2023-06-22T11:42:33;28.70;90.90
7204;DHT22;3643;52.460;13.322;2023-06-22T11:45:05;28.70;91.10
7204;DHT22;3643;52.460;13.322;2023-06-22T11:47:33;28.90;91.30
7204;DHT22;3643;52.460;13.322;2023-06-22T11:50:03;29.10;91.30
7204;DHT22;3643;52.460;13.322;2023-06-22T11:52:32;29.40;91.40
7204;DHT22;3643;52.460;13.322;2023-06-22T11:55:01;29.80;91.10
7204;DHT22;3643;52.460;13.322;2023-06-22T11:57:32;30.20;90.70
7204;DHT22;3643;52.460;13.322;2023-06-22T12:00:00;30.20;90.20
7204;DHT22;3643;52.460;13.322;2023-06-22T12:02:34;29.90;90.20
7204;DHT22;3643;52.460;13.322;2023-06-22T12:05:05;29.40;90.40
7204;DHT22;3643;52.460;13.322;2023-06-22T12:07:34;29.20;90.80
7204;DHT22;3643;52.460;13.322;2023-06-22T12:10:03;29.50;90.90
7204;DHT22;3643;52.460;13.322;2023-06-22T12:12:31;29.80;90.40
7204;DHT22;3643;52.460;13.322;2023-06-22T12:15:00;29.70;90.40
7204;DHT22;3643;52.460;13.322;2023-06-22T12:17:30;29.40;90.80
7204;DHT22;3643;52.460;13.322;2023-06-22T12:20:00;29.50;90.60
7204;DHT22;3643;52.460;13.322;2023-06-22T12:22:28;29.50;90.60
7204;DHT22;3643;52.460;13.322;2023-06-22T12:24:56;29.50;90.70
7204;DHT22;3643;52.460;13.322;2023-06-22T12:27:25;29.50;90.50
7204;DHT22;3643;52.460;13.322;2023-06-22T12:29:53;29.50;90.60
7204;DHT22;3643;52.460;13.322;2023-06-22T12:32:21;29.30;90.90
7204;DHT22;3643;52.460;13.322;2023-06-22T12:34:50;29.20;91.00
7204;DHT22;3643;52.460;13.322;2023-06-22T12:37:19;29.20;91.20
7204;DHT22;3643;52.460;13.322;2023-06-22T12:39:48;29.10;91.30
7204;DHT22;3643;52.460;13.322;2023-06-22T12:42:16;29.30;91.40
7204;DHT22;3643;52.460;13.322;2023-06-22T12:44:44;29.20;91.20
7204;DHT22;3643;52.460;13.322;2023-06-22T12:47:13;29.00;91.10
7204;DHT22;3643;52.460;13.322;2023-06-22T12:49:41;29.10;91.40
7204;DHT22;3643;52.460;13.322;2023-06-22T12:52:10;29.20;91.30
7204;DHT22;3643;52.460;13.322;2023-06-22T12:54:40;29.20;91.00
7204;DHT22;3643;52.460;13.322;2023-06-22T12:57:20;29.40;91.20
7204;DHT22;3643;52.460;13.322;2023-06-22T12:59:49;29.70;91.20
7204;DHT22;3643;52.460;13.322;2023-06-22T13:02:17;29.90;91.30
7204;DHT22;3643;52.460;13.322;2023-06-22T13:04:45;30.00;91.10
7204;DHT22;3643;52.460;13.322;2023-06-22T13:07:14;30.30;90.40
7204;DHT22;3643;52.460;13.322;2023-06-22T13:09:51;30.20;90.40
7204;DHT22;3643;52.460;13.322;2023-06-22T13:12:20;30.20;90.50
7204;DHT22;3643;52.460;13.322;2023-06-22T13:14:48;30.10;90.90
7204;DHT22;3643;52.460;13.322;2023-06-22T13:17:17;30.00;90.60
7204;DHT22;3643;52.460;13.322;2023-06-22T13:19:45;29.80;90.70
7204;DHT22;3643;52.460;13.322;2023-06-22T13:22:27;29.60;90.80
7204;DHT22;3643;52.460;13.322;2023-06-22T13:24:57;29.60;91.00
7204;DHT22;3643;52.460;13.322;2023-06-22T13:27:26;29.60;91.10
7204;DHT22;3643;52.460;13.322;2023-06-22T13:29:54;29.50;91.00
7204;DHT22;3643;52.460;13.322;2023-06-22T13:32:22;28.90;90.90
7204;DHT22;3643;52.460;13.322;2023-06-22T13:34:52;29.50;91.30
7204;DHT22;3643;52.460;13.322;2023-06-22T13:37:20;29.50;91.00
7204;DHT22;3643;52.460;13.322;2023-06-22T13:39:49;29.30;91.10
7204;DHT22;3643;52.460;13.322;2023-06-22T13:42:18;29.00;91.30
7204;DHT22;3643;52.460;13.322;2023-06-22T13:44:47;29.00;91.50
7204;DHT22;3643;52.460;13.322;2023-06-22T13:47:15;29.20;91.50
7204;DHT22;3643;52.460;13.322;2023-06-22T13:49:43;29.20;91.50
7204;DHT22;3643;52.460;13.322;2023-06-22T13:52:11;29.20;91.50
7204;DHT22;3643;52.460;13.322;2023-06-22T13:54:40;29.20;91.50
7204;DHT22;3643;52.460;13.322;2023-06-22T13:57:08;29.10;91.50
7204;DHT22;3643;52.460;13.322;2023-06-22T13:59:38;29.10;91.50
7204;DHT22;3643;52.460;13.322;2023-06-22T14:02:06;29.10;91.60
7204;DHT22;3643;52.460;13.322;2023-06-22T14:04:34;29.10;91.80
7204;DHT22;3643;52.460;13.322;2023-06-22T14:07:03;29.10;91.80
7204;DHT22;3643;52.460;13.322;2023-06-22T14:09:31;29.10;91.60
7204;DHT22;3643;52.460;13.322;2023-06-22T14:12:03;29.20;91.70
7204;DHT22;3643;52.460;13.322;2023-06-22T14:14:32;29.00;91.60
7204;DHT22;3643;52.460;13.322;2023-06-22T14:17:03;28.90;91.80
7204;DHT22;3643;52.460;13.322;2023-06-22T14:19:31;28.40;91.60
7204;DHT22;3643;52.460;13.322;2023-06-22T14:22:00;29.00;91.80
7204;DHT22;3643;52.460;13.322;2023-06-22T14:24:28;29.10;91.80
7204;DHT22;3643;52.460;13.322;2023-06-22T14:26:57;29.10;91.80
7204;DHT22;3643;52.460;13.322;2023-06-22T14:29:26;29.20;92.00
7204;DHT22;3643;52.460;13.322;2023-06-22T14:31:54;29.30;91.70
7204;DHT22;3643;52.460;13.322;2023-06-22T14:34:24;29.30;91.80
7204;DHT22;3643;52.460;13.322;2023-06-22T14:36:53;29.30;91.80
7204;DHT22;3643;52.460;13.322;2023-06-22T14:39:21;29.30;91.70
7204;DHT22;3643;52.460;13.322;2023-06-22T14:41:50;29.20;91.80
7204;DHT22;3643;52.460;13.322;2023-06-22T14:44:18;29.20;91.80
7204;DHT22;3643;52.460;13.322;2023-06-22T14:46:46;29.10;91.90
7204;DHT22;3643;52.460;13.322;2023-06-22T14:49:15;29.30;92.00
7204;DHT22;3643;52.460;13.322;2023-06-22T14:51:45;29.30;91.90
7204;DHT22;3643;52.460;13.322;2023-06-22T14:54:13;29.20;92.00
7204;DHT22;3643;52.460;13.322;2023-06-22T14:56:42;29.30;92.00
7204;DHT22;3643;52.460;13.322;2023-06-22T14:59:11;29.40;91.80
7204;DHT22;3643;52.460;13.322;2023-06-22T15:01:39;29.40;91.90
7204;DHT22;3643;52.460;13.322;2023-06-22T15:04:09;29.40;91.90
7204;DHT22;3643;52.460;13.322;2023-06-22T15:06:37;29.60;92.00
7204;DHT22;3643;52.460;13.322;2023-06-22T15:09:07;29.60;91.70
7204;DHT22;3643;52.460;13.322;2023-06-22T15:11:35;29.60;91.60
7204;DHT22;3643;52.460;13.322;2023-06-22T15:14:04;29.30;91.90
7204;DHT22;3643;52.460;13.322;2023-06-22T15:18:58;29.30;91.70
7204;DHT22;3643;52.460;13.322;2023-06-22T15:21:26;29.20;91.80
7204;DHT22;3643;52.460;13.322;2023-06-22T15:23:55;29.30;91.80
7204;DHT22;3643;52.460;13.322;2023-06-22T15:26:25;29.30;92.10
7204;DHT22;3643;52.460;13.322;2023-06-22T15:28:53;29.20;91.70
7204;DHT22;3643;52.460;13.322;2023-06-22T15:31:22;29.20;91.70
7204;DHT22;3643;52.460;13.322;2023-06-22T15:33:51;29.10;91.70
7204;DHT22;3643;52.460;13.322;2023-06-22T15:36:20;29.30;91.90
7204;DHT22;3643;52.460;13.322;2023-06-22T15:38:49;29.40;92.10
7204;DHT22;3643;52.460;13.322;2023-06-22T15:41:17;29.60;91.90
7204;DHT22;3643;52.460;13.322;2023-06-22T15:43:47;29.80;91.70
7204;DHT22;3643;52.460;13.322;2023-06-22T15:46:16;29.70;91.60
7204;DHT22;3643;52.460;13.322;2023-06-22T15:48:45;29.50;91.60
7204;DHT22;3643;52.460;13.322;2023-06-22T15:51:19;29.30;91.60
7204;DHT22;3643;52.460;13.322;2023-06-22T15:53:48;29.40;91.60
7204;DHT22;3643;52.460;13.322;2023-06-22T15:56:17;29.30;91.80
7204;DHT22;3643;52.460;13.322;2023-06-22T15:58:48;29.20;91.70
7204;DHT22;3643;52.460;13.322;2023-06-22T16:01:17;29.20;91.80